sensor_id;sensor_type;location;lat;lon;timestamp;P1;durP1;ratioP1;P2;durP2;ratioP2
34234;SDS011;20500;49.856;20.290;2022-12-18T00:00:56;55.80;;;26.60;;
34234;SDS011;20500;49.856;20.290;2022-12-18T00:04:00;50.40;;;25.00;;
34234;SDS011;20500;49.856;20.290;2022-12-18T00:07:07;60.10;;;27.10;;
34234;SDS011;20500;49.856;20.290;2022-12-18T00:10:10;60.10;;;26.50;;
34234;SDS011;20500;49.856;20.290;2022-12-18T00:13:16;52.90;;;25.80;;
34234;SDS011;20500;49.856;20.290;2022-12-18T00:16:19;54.40;;;24.40;;
34234;SDS011;20500;49.856;20.290;2022-12-18T00:19:24;50.20;;;23.50;;
34234;SDS011;20500;49.856;20.290;2022-12-18T00:22:27;46.60;;;22.40;;
34234;SDS011;20500;49.856;20.290;2022-12-18T00:25:29;53.70;;;22.90;;
34234;SDS011;20500;49.856;20.290;2022-12-18T00:28:36;49.30;;;20.80;;
34234;SDS011;20500;49.856;20.290;2022-12-18T00:31:39;48.70;;;21.50;;
34234;SDS011;20500;49.856;20.290;2022-12-18T00:34:43;48.30;;;22.60;;
34234;SDS011;20500;49.856;20.290;2022-12-18T00:37:46;51.60;;;21.80;;
34234;SDS011;20500;49.856;20.290;2022-12-18T00:40:49;48.20;;;22.70;;
34234;SDS011;20500;49.856;20.290;2022-12-18T00:43:51;47.30;;;21.40;;
34234;SDS011;20500;49.856;20.290;2022-12-18T00:46:54;45.50;;;22.70;;
34234;SDS011;20500;49.856;20.290;2022-12-18T00:49:57;49.20;;;21.80;;
34234;SDS011;20500;49.856;20.290;2022-12-18T00:53:00;49.20;;;23.50;;
34234;SDS011;20500;49.856;20.290;2022-12-18T00:56:03;50.90;;;23.00;;
34234;SDS011;20500;49.856;20.290;2022-12-18T00:59:06;51.50;;;22.70;;
34234;SDS011;20500;49.856;20.290;2022-12-18T01:02:09;47.70;;;22.60;;
34234;SDS011;20500;49.856;20.290;2022-12-18T01:05:13;49.80;;;23.80;;
34234;SDS011;20500;49.856;20.290;2022-12-18T01:08:16;46.60;;;23.00;;
34234;SDS011;20500;49.856;20.290;2022-12-18T01:11:19;47.10;;;21.10;;
34234;SDS011;20500;49.856;20.290;2022-12-18T01:14:23;45.80;;;21.00;;
34234;SDS011;20500;49.856;20.290;2022-12-18T01:17:26;46.70;;;21.30;;
34234;SDS011;20500;49.856;20.290;2022-12-18T01:20:28;48.50;;;22.60;;
34234;SDS011;20500;49.856;20.290;2022-12-18T01:23:31;47.60;;;22.40;;
34234;SDS011;20500;49.856;20.290;2022-12-18T01:26:34;51.80;;;23.30;;
34234;SDS011;20500;49.856;20.290;2022-12-18T01:29:37;49.50;;;22.40;;
34234;SDS011;20500;49.856;20.290;2022-12-18T01:32:39;47.00;;;22.80;;
34234;SDS011;20500;49.856;20.290;2022-12-18T01:35:42;46.90;;;23.70;;
34234;SDS011;20500;49.856;20.290;2022-12-18T01:38:45;50.90;;;23.30;;
34234;SDS011;20500;49.856;20.290;2022-12-18T01:41:51;50.90;;;23.40;;
34234;SDS011;20500;49.856;20.290;2022-12-18T01:45:08;53.20;;;23.20;;
34234;SDS011;20500;49.856;20.290;2022-12-18T01:48:26;49.00;;;23.70;;
34234;SDS011;20500;49.856;20.290;2022-12-18T01:51:29;47.90;;;21.90;;
34234;SDS011;20500;49.856;20.290;2022-12-18T01:54:32;48.80;;;23.40;;
34234;SDS011;20500;49.856;20.290;2022-12-18T01:57:35;47.90;;;23.00;;
34234;SDS011;20500;49.856;20.290;2022-12-18T02:00:39;48.90;;;23.70;;
34234;SDS011;20500;49.856;20.290;2022-12-18T02:03:42;51.50;;;22.80;;
34234;SDS011;20500;49.856;20.290;2022-12-18T02:06:46;50.60;;;23.40;;
34234;SDS011;20500;49.856;20.290;2022-12-18T02:09:54;47.80;;;22.70;;
34234;SDS011;20500;49.856;20.290;2022-12-18T02:13:02;46.00;;;22.60;;
34234;SDS011;20500;49.856;20.290;2022-12-18T02:16:16;50.40;;;23.10;;
34234;SDS011;20500;49.856;20.290;2022-12-18T02:19:41;50.50;;;23.20;;
34234;SDS011;20500;49.856;20.290;2022-12-18T02:23:04;47.40;;;23.40;;
34234;SDS011;20500;49.856;20.290;2022-12-18T02:26:16;50.40;;;22.30;;
34234;SDS011;20500;49.856;20.290;2022-12-18T02:29:22;50.70;;;22.90;;
34234;SDS011;20500;49.856;20.290;2022-12-18T02:32:29;51.70;;;23.10;;
34234;SDS011;20500;49.856;20.290;2022-12-18T02:35:35;48.30;;;22.60;;
34234;SDS011;20500;49.856;20.290;2022-12-18T02:38:40;49.10;;;23.20;;
34234;SDS011;20500;49.856;20.290;2022-12-18T02:41:45;49.50;;;23.00;;
34234;SDS011;20500;49.856;20.290;2022-12-18T02:44:50;51.10;;;22.10;;
34234;SDS011;20500;49.856;20.290;2022-12-18T02:47:53;47.90;;;24.10;;
34234;SDS011;20500;49.856;20.290;2022-12-18T02:50:57;49.80;;;23.20;;
34234;SDS011;20500;49.856;20.290;2022-12-18T02:54:10;47.00;;;22.40;;
34234;SDS011;20500;49.856;20.290;2022-12-18T02:57:24;48.60;;;22.70;;
34234;SDS011;20500;49.856;20.290;2022-12-18T03:00:37;44.70;;;20.70;;
34234;SDS011;20500;49.856;20.290;2022-12-18T03:03:43;46.70;;;23.00;;
34234;SDS011;20500;49.856;20.290;2022-12-18T03:06:53;47.80;;;23.70;;
34234;SDS011;20500;49.856;20.290;2022-12-18T03:09:58;49.00;;;23.50;;
34234;SDS011;20500;49.856;20.290;2022-12-18T03:13:04;54.30;;;23.40;;
34234;SDS011;20500;49.856;20.290;2022-12-18T03:16:10;50.40;;;23.20;;
34234;SDS011;20500;49.856;20.290;2022-12-18T03:19:18;49.70;;;21.90;;
34234;SDS011;20500;49.856;20.290;2022-12-18T03:22:24;49.20;;;24.00;;
34234;SDS011;20500;49.856;20.290;2022-12-18T03:25:31;47.90;;;21.70;;
34234;SDS011;20500;49.856;20.290;2022-12-18T03:28:38;45.40;;;21.80;;
34234;SDS011;20500;49.856;20.290;2022-12-18T03:31:47;43.90;;;21.90;;
34234;SDS011;20500;49.856;20.290;2022-12-18T03:34:55;44.60;;;21.60;;
34234;SDS011;20500;49.856;20.290;2022-12-18T03:38:04;47.80;;;22.10;;
34234;SDS011;20500;49.856;20.290;2022-12-18T03:41:09;47.10;;;22.00;;
34234;SDS011;20500;49.856;20.290;2022-12-18T03:44:19;47.70;;;22.40;;
34234;SDS011;20500;49.856;20.290;2022-12-18T03:47:29;46.80;;;21.70;;
34234;SDS011;20500;49.856;20.290;2022-12-18T03:50:37;44.70;;;21.20;;
34234;SDS011;20500;49.856;20.290;2022-12-18T03:53:47;47.30;;;21.80;;
34234;SDS011;20500;49.856;20.290;2022-12-18T03:56:56;47.30;;;22.90;;
34234;SDS011;20500;49.856;20.290;2022-12-18T04:00:04;43.60;;;21.90;;
34234;SDS011;20500;49.856;20.290;2022-12-18T04:03:10;47.50;;;23.50;;
34234;SDS011;20500;49.856;20.290;2022-12-18T04:06:15;44.80;;;21.70;;
34234;SDS011;20500;49.856;20.290;2022-12-18T04:09:19;47.10;;;21.70;;
34234;SDS011;20500;49.856;20.290;2022-12-18T04:12:24;45.00;;;20.40;;
34234;SDS011;20500;49.856;20.290;2022-12-18T04:15:28;43.60;;;20.30;;
34234;SDS011;20500;49.856;20.290;2022-12-18T04:18:31;45.40;;;21.40;;
34234;SDS011;20500;49.856;20.290;2022-12-18T04:21:34;44.10;;;21.60;;
34234;SDS011;20500;49.856;20.290;2022-12-18T04:24:36;48.30;;;22.60;;
34234;SDS011;20500;49.856;20.290;2022-12-18T04:27:39;44.80;;;20.60;;
34234;SDS011;20500;49.856;20.290;2022-12-18T04:30:42;44.60;;;21.60;;
34234;SDS011;20500;49.856;20.290;2022-12-18T04:33:45;46.60;;;20.30;;
34234;SDS011;20500;49.856;20.290;2022-12-18T04:36:48;47.30;;;20.70;;
34234;SDS011;20500;49.856;20.290;2022-12-18T04:39:51;48.30;;;21.20;;
34234;SDS011;20500;49.856;20.290;2022-12-18T04:42:53;44.10;;;21.30;;
34234;SDS011;20500;49.856;20.290;2022-12-18T04:46:01;43.30;;;21.30;;
34234;SDS011;20500;49.856;20.290;2022-12-18T04:49:05;42.30;;;21.40;;
34234;SDS011;20500;49.856;20.290;2022-12-18T04:52:08;48.30;;;22.10;;
34234;SDS011;20500;49.856;20.290;2022-12-18T04:55:11;44.90;;;21.00;;
34234;SDS011;20500;49.856;20.290;2022-12-18T04:58:14;45.10;;;22.20;;
34234;SDS011;20500;49.856;20.290;2022-12-18T05:01:17;42.40;;;20.80;;
34234;SDS011;20500;49.856;20.290;2022-12-18T05:04:21;42.90;;;21.20;;
34234;SDS011;20500;49.856;20.290;2022-12-18T05:07:23;45.50;;;21.70;;
34234;SDS011;20500;49.856;20.290;2022-12-18T05:10:26;47.20;;;21.60;;
34234;SDS011;20500;49.856;20.290;2022-12-18T05:13:37;47.30;;;21.10;;
34234;SDS011;20500;49.856;20.290;2022-12-18T05:16:41;48.20;;;22.30;;
34234;SDS011;20500;49.856;20.290;2022-12-18T05:19:44;47.60;;;21.20;;
34234;SDS011;20500;49.856;20.290;2022-12-18T05:22:47;41.40;;;20.30;;
34234;SDS011;20500;49.856;20.290;2022-12-18T05:25:51;42.80;;;21.10;;
34234;SDS011;20500;49.856;20.290;2022-12-18T05:28:54;50.90;;;21.90;;
34234;SDS011;20500;49.856;20.290;2022-12-18T05:31:57;42.20;;;21.00;;
34234;SDS011;20500;49.856;20.290;2022-12-18T05:35:00;40.90;;;20.20;;
34234;SDS011;20500;49.856;20.290;2022-12-18T05:38:03;39.60;;;20.30;;
34234;SDS011;20500;49.856;20.290;2022-12-18T05:41:06;47.60;;;21.70;;
34234;SDS011;20500;49.856;20.290;2022-12-18T05:44:10;46.10;;;21.70;;
34234;SDS011;20500;49.856;20.290;2022-12-18T05:47:13;45.60;;;20.90;;
34234;SDS011;20500;49.856;20.290;2022-12-18T05:50:16;46.00;;;21.80;;
34234;SDS011;20500;49.856;20.290;2022-12-18T05:53:20;46.20;;;21.80;;
34234;SDS011;20500;49.856;20.290;2022-12-18T05:56:23;42.10;;;20.20;;
34234;SDS011;20500;49.856;20.290;2022-12-18T05:59:25;44.90;;;21.40;;
34234;SDS011;20500;49.856;20.290;2022-12-18T06:02:28;46.40;;;21.70;;
34234;SDS011;20500;49.856;20.290;2022-12-18T06:05:34;44.00;;;21.60;;
34234;SDS011;20500;49.856;20.290;2022-12-18T06:08:38;42.30;;;21.10;;
34234;SDS011;20500;49.856;20.290;2022-12-18T06:11:47;43.20;;;20.90;;
34234;SDS011;20500;49.856;20.290;2022-12-18T06:14:50;40.30;;;20.20;;
34234;SDS011;20500;49.856;20.290;2022-12-18T06:17:52;42.60;;;21.20;;
34234;SDS011;20500;49.856;20.290;2022-12-18T06:20:55;40.10;;;20.00;;
34234;SDS011;20500;49.856;20.290;2022-12-18T06:23:59;44.00;;;20.00;;
34234;SDS011;20500;49.856;20.290;2022-12-18T06:27:02;40.40;;;20.00;;
34234;SDS011;20500;49.856;20.290;2022-12-18T06:30:07;37.70;;;19.00;;
34234;SDS011;20500;49.856;20.290;2022-12-18T06:36:14;41.60;;;19.50;;
34234;SDS011;20500;49.856;20.290;2022-12-18T06:39:17;40.60;;;19.70;;
34234;SDS011;20500;49.856;20.290;2022-12-18T06:42:20;40.60;;;19.20;;
34234;SDS011;20500;49.856;20.290;2022-12-18T06:45:23;39.90;;;18.60;;
34234;SDS011;20500;49.856;20.290;2022-12-18T06:48:26;35.10;;;17.90;;
34234;SDS011;20500;49.856;20.290;2022-12-18T06:51:29;40.00;;;19.50;;
34234;SDS011;20500;49.856;20.290;2022-12-18T06:54:32;39.60;;;19.30;;
34234;SDS011;20500;49.856;20.290;2022-12-18T06:57:34;43.50;;;19.70;;
34234;SDS011;20500;49.856;20.290;2022-12-18T07:00:37;39.80;;;19.20;;
34234;SDS011;20500;49.856;20.290;2022-12-18T07:03:40;36.30;;;18.50;;
34234;SDS011;20500;49.856;20.290;2022-12-18T07:06:45;37.40;;;19.60;;
34234;SDS011;20500;49.856;20.290;2022-12-18T07:09:49;36.30;;;18.70;;
34234;SDS011;20500;49.856;20.290;2022-12-18T07:12:52;37.80;;;19.50;;
34234;SDS011;20500;49.856;20.290;2022-12-18T07:15:55;40.10;;;18.70;;
34234;SDS011;20500;49.856;20.290;2022-12-18T07:19:04;37.60;;;18.80;;
34234;SDS011;20500;49.856;20.290;2022-12-18T07:22:07;41.80;;;19.50;;
34234;SDS011;20500;49.856;20.290;2022-12-18T07:25:09;39.60;;;20.50;;
34234;SDS011;20500;49.856;20.290;2022-12-18T07:28:12;38.00;;;19.70;;
34234;SDS011;20500;49.856;20.290;2022-12-18T07:31:19;42.10;;;21.90;;
34234;SDS011;20500;49.856;20.290;2022-12-18T07:34:23;39.70;;;20.30;;
34234;SDS011;20500;49.856;20.290;2022-12-18T07:37:26;41.00;;;21.10;;
34234;SDS011;20500;49.856;20.290;2022-12-18T07:40:29;41.90;;;21.30;;
34234;SDS011;20500;49.856;20.290;2022-12-18T07:43:32;41.60;;;22.50;;
34234;SDS011;20500;49.856;20.290;2022-12-18T07:46:35;50.40;;;23.60;;
34234;SDS011;20500;49.856;20.290;2022-12-18T07:49:38;45.50;;;22.30;;
34234;SDS011;20500;49.856;20.290;2022-12-18T07:52:41;45.00;;;22.80;;
34234;SDS011;20500;49.856;20.290;2022-12-18T07:55:44;43.90;;;22.10;;
34234;SDS011;20500;49.856;20.290;2022-12-18T07:59:07;39.40;;;19.90;;
34234;SDS011;20500;49.856;20.290;2022-12-18T08:02:10;42.20;;;21.50;;
34234;SDS011;20500;49.856;20.290;2022-12-18T08:05:13;46.20;;;21.80;;
34234;SDS011;20500;49.856;20.290;2022-12-18T08:08:16;39.90;;;21.10;;
34234;SDS011;20500;49.856;20.290;2022-12-18T08:11:19;41.60;;;21.50;;
34234;SDS011;20500;49.856;20.290;2022-12-18T08:14:22;42.80;;;21.40;;
34234;SDS011;20500;49.856;20.290;2022-12-18T08:17:25;41.50;;;21.90;;
34234;SDS011;20500;49.856;20.290;2022-12-18T08:20:28;44.60;;;21.90;;
34234;SDS011;20500;49.856;20.290;2022-12-18T08:23:30;44.20;;;22.30;;
34234;SDS011;20500;49.856;20.290;2022-12-18T08:26:33;42.30;;;21.70;;
34234;SDS011;20500;49.856;20.290;2022-12-18T08:29:36;46.20;;;21.70;;
34234;SDS011;20500;49.856;20.290;2022-12-18T08:32:39;41.00;;;21.20;;
34234;SDS011;20500;49.856;20.290;2022-12-18T08:35:42;46.30;;;23.00;;
34234;SDS011;20500;49.856;20.290;2022-12-18T08:38:47;37.20;;;19.80;;
34234;SDS011;20500;49.856;20.290;2022-12-18T08:41:50;43.30;;;22.50;;
34234;SDS011;20500;49.856;20.290;2022-12-18T08:45:11;40.60;;;22.80;;
34234;SDS011;20500;49.856;20.290;2022-12-18T08:48:14;40.50;;;21.30;;
34234;SDS011;20500;49.856;20.290;2022-12-18T08:51:23;42.00;;;21.80;;
34234;SDS011;20500;49.856;20.290;2022-12-18T08:54:26;41.30;;;20.40;;
34234;SDS011;20500;49.856;20.290;2022-12-18T08:57:29;40.30;;;20.40;;
34234;SDS011;20500;49.856;20.290;2022-12-18T09:00:31;39.40;;;20.50;;
34234;SDS011;20500;49.856;20.290;2022-12-18T09:03:34;40.00;;;20.30;;
34234;SDS011;20500;49.856;20.290;2022-12-18T09:06:38;41.50;;;21.10;;
34234;SDS011;20500;49.856;20.290;2022-12-18T09:09:42;39.20;;;19.50;;
34234;SDS011;20500;49.856;20.290;2022-12-18T09:12:45;37.90;;;19.80;;
34234;SDS011;20500;49.856;20.290;2022-12-18T09:15:49;40.00;;;20.90;;
34234;SDS011;20500;49.856;20.290;2022-12-18T09:18:54;42.40;;;20.20;;
34234;SDS011;20500;49.856;20.290;2022-12-18T09:22:01;41.70;;;20.20;;
34234;SDS011;20500;49.856;20.290;2022-12-18T09:25:05;39.90;;;19.90;;
34234;SDS011;20500;49.856;20.290;2022-12-18T09:28:10;38.00;;;19.40;;
34234;SDS011;20500;49.856;20.290;2022-12-18T09:31:14;38.90;;;19.70;;
34234;SDS011;20500;49.856;20.290;2022-12-18T09:34:18;36.90;;;20.10;;
34234;SDS011;20500;49.856;20.290;2022-12-18T09:37:23;37.40;;;18.40;;
34234;SDS011;20500;49.856;20.290;2022-12-18T09:40:26;37.60;;;19.30;;
34234;SDS011;20500;49.856;20.290;2022-12-18T09:43:35;42.20;;;20.70;;
34234;SDS011;20500;49.856;20.290;2022-12-18T09:46:43;36.90;;;19.80;;
34234;SDS011;20500;49.856;20.290;2022-12-18T09:49:51;39.20;;;19.40;;
34234;SDS011;20500;49.856;20.290;2022-12-18T09:52:59;39.50;;;20.00;;
34234;SDS011;20500;49.856;20.290;2022-12-18T09:56:10;38.70;;;19.90;;
34234;SDS011;20500;49.856;20.290;2022-12-18T09:59:20;35.60;;;19.30;;
34234;SDS011;20500;49.856;20.290;2022-12-18T10:02:26;37.40;;;18.90;;
34234;SDS011;20500;49.856;20.290;2022-12-18T10:05:34;38.10;;;19.90;;
34234;SDS011;20500;49.856;20.290;2022-12-18T10:08:45;43.80;;;23.40;;
34234;SDS011;20500;49.856;20.290;2022-12-18T10:11:57;44.10;;;23.50;;
34234;SDS011;20500;49.856;20.290;2022-12-18T10:15:10;44.10;;;23.20;;
34234;SDS011;20500;49.856;20.290;2022-12-18T10:18:22;41.40;;;21.40;;
34234;SDS011;20500;49.856;20.290;2022-12-18T10:21:37;41.10;;;21.70;;
34234;SDS011;20500;49.856;20.290;2022-12-18T10:24:48;43.60;;;23.20;;
34234;SDS011;20500;49.856;20.290;2022-12-18T10:28:06;39.20;;;21.50;;
34234;SDS011;20500;49.856;20.290;2022-12-18T10:31:14;43.40;;;22.00;;
34234;SDS011;20500;49.856;20.290;2022-12-18T10:34:19;42.20;;;22.40;;
34234;SDS011;20500;49.856;20.290;2022-12-18T10:37:22;39.20;;;20.80;;
34234;SDS011;20500;49.856;20.290;2022-12-18T10:40:27;44.60;;;24.30;;
34234;SDS011;20500;49.856;20.290;2022-12-18T10:43:30;37.00;;;20.60;;
34234;SDS011;20500;49.856;20.290;2022-12-18T10:46:34;35.20;;;17.50;;
34234;SDS011;20500;49.856;20.290;2022-12-18T10:49:37;36.90;;;19.00;;
34234;SDS011;20500;49.856;20.290;2022-12-18T10:52:54;35.30;;;21.30;;
34234;SDS011;20500;49.856;20.290;2022-12-18T10:55:59;24.90;;;12.00;;
34234;SDS011;20500;49.856;20.290;2022-12-18T10:59:04;24.00;;;12.50;;
34234;SDS011;20500;49.856;20.290;2022-12-18T11:02:09;24.20;;;12.70;;
34234;SDS011;20500;49.856;20.290;2022-12-18T11:05:30;25.40;;;12.70;;
34234;SDS011;20500;49.856;20.290;2022-12-18T11:08:34;27.60;;;13.80;;
34234;SDS011;20500;49.856;20.290;2022-12-18T11:11:37;34.00;;;17.50;;
34234;SDS011;20500;49.856;20.290;2022-12-18T11:14:42;31.00;;;16.60;;
34234;SDS011;20500;49.856;20.290;2022-12-18T11:17:49;30.80;;;16.30;;
34234;SDS011;20500;49.856;20.290;2022-12-18T11:20:54;31.50;;;15.40;;
34234;SDS011;20500;49.856;20.290;2022-12-18T11:24:00;31.50;;;16.20;;
34234;SDS011;20500;49.856;20.290;2022-12-18T11:27:04;36.80;;;18.20;;
34234;SDS011;20500;49.856;20.290;2022-12-18T11:30:21;33.90;;;17.90;;
34234;SDS011;20500;49.856;20.290;2022-12-18T11:33:26;31.30;;;16.40;;
34234;SDS011;20500;49.856;20.290;2022-12-18T11:36:30;27.90;;;14.90;;
34234;SDS011;20500;49.856;20.290;2022-12-18T11:39:38;31.10;;;15.80;;
34234;SDS011;20500;49.856;20.290;2022-12-18T11:42:48;29.70;;;15.70;;
34234;SDS011;20500;49.856;20.290;2022-12-18T11:45:59;28.00;;;14.60;;
34234;SDS011;20500;49.856;20.290;2022-12-18T11:49:06;31.00;;;17.40;;
34234;SDS011;20500;49.856;20.290;2022-12-18T11:52:15;29.80;;;16.20;;
34234;SDS011;20500;49.856;20.290;2022-12-18T11:55:22;31.80;;;15.50;;
34234;SDS011;20500;49.856;20.290;2022-12-18T11:58:40;30.50;;;16.00;;
34234;SDS011;20500;49.856;20.290;2022-12-18T12:01:49;28.10;;;15.30;;
34234;SDS011;20500;49.856;20.290;2022-12-18T12:05:03;33.20;;;18.70;;
34234;SDS011;20500;49.856;20.290;2022-12-18T12:08:22;28.40;;;15.60;;
34234;SDS011;20500;49.856;20.290;2022-12-18T12:11:38;32.40;;;17.30;;
34234;SDS011;20500;49.856;20.290;2022-12-18T12:14:54;33.10;;;17.60;;
34234;SDS011;20500;49.856;20.290;2022-12-18T12:18:07;32.80;;;17.80;;
34234;SDS011;20500;49.856;20.290;2022-12-18T12:21:19;32.80;;;17.90;;
34234;SDS011;20500;49.856;20.290;2022-12-18T12:24:34;37.10;;;19.70;;
34234;SDS011;20500;49.856;20.290;2022-12-18T12:27:52;36.50;;;18.90;;
34234;SDS011;20500;49.856;20.290;2022-12-18T12:31:03;43.70;;;22.40;;
34234;SDS011;20500;49.856;20.290;2022-12-18T12:34:16;33.70;;;18.20;;
34234;SDS011;20500;49.856;20.290;2022-12-18T12:37:25;37.30;;;19.70;;
34234;SDS011;20500;49.856;20.290;2022-12-18T12:40:41;42.90;;;22.20;;
34234;SDS011;20500;49.856;20.290;2022-12-18T12:44:00;45.00;;;24.50;;
34234;SDS011;20500;49.856;20.290;2022-12-18T12:47:10;45.60;;;26.50;;
34234;SDS011;20500;49.856;20.290;2022-12-18T12:50:18;46.90;;;25.40;;
34234;SDS011;20500;49.856;20.290;2022-12-18T12:53:25;46.60;;;25.50;;
34234;SDS011;20500;49.856;20.290;2022-12-18T12:56:36;49.30;;;25.60;;
34234;SDS011;20500;49.856;20.290;2022-12-18T12:59:45;46.10;;;25.70;;
34234;SDS011;20500;49.856;20.290;2022-12-18T13:02:58;51.70;;;26.50;;
34234;SDS011;20500;49.856;20.290;2022-12-18T13:06:08;54.30;;;28.40;;
34234;SDS011;20500;49.856;20.290;2022-12-18T13:09:19;50.20;;;27.90;;
34234;SDS011;20500;49.856;20.290;2022-12-18T13:12:22;49.90;;;27.90;;
34234;SDS011;20500;49.856;20.290;2022-12-18T13:15:47;52.30;;;28.60;;
34234;SDS011;20500;49.856;20.290;2022-12-18T13:19:18;55.00;;;28.90;;
34234;SDS011;20500;49.856;20.290;2022-12-18T13:22:29;51.90;;;28.10;;
34234;SDS011;20500;49.856;20.290;2022-12-18T13:25:36;53.00;;;28.20;;
34234;SDS011;20500;49.856;20.290;2022-12-18T13:28:52;57.00;;;30.50;;
34234;SDS011;20500;49.856;20.290;2022-12-18T13:32:01;58.10;;;29.80;;
34234;SDS011;20500;49.856;20.290;2022-12-18T13:38:41;60.30;;;30.40;;
34234;SDS011;20500;49.856;20.290;2022-12-18T13:41:45;58.60;;;29.00;;
34234;SDS011;20500;49.856;20.290;2022-12-18T13:44:50;56.20;;;29.00;;
34234;SDS011;20500;49.856;20.290;2022-12-18T13:47:53;57.60;;;30.40;;
34234;SDS011;20500;49.856;20.290;2022-12-18T13:51:00;53.10;;;28.50;;
34234;SDS011;20500;49.856;20.290;2022-12-18T13:54:12;48.60;;;25.90;;
34234;SDS011;20500;49.856;20.290;2022-12-18T13:57:26;54.80;;;27.00;;
34234;SDS011;20500;49.856;20.290;2022-12-18T14:00:31;46.60;;;24.50;;
34234;SDS011;20500;49.856;20.290;2022-12-18T14:03:34;58.00;;;30.70;;
34234;SDS011;20500;49.856;20.290;2022-12-18T14:06:37;69.00;;;38.60;;
34234;SDS011;20500;49.856;20.290;2022-12-18T14:09:41;61.10;;;35.10;;
34234;SDS011;20500;49.856;20.290;2022-12-18T14:12:48;62.90;;;34.00;;
34234;SDS011;20500;49.856;20.290;2022-12-18T14:16:03;64.40;;;31.50;;
34234;SDS011;20500;49.856;20.290;2022-12-18T14:19:08;62.50;;;34.30;;
34234;SDS011;20500;49.856;20.290;2022-12-18T14:22:17;55.60;;;29.90;;
34234;SDS011;20500;49.856;20.290;2022-12-18T14:25:23;53.30;;;29.30;;
34234;SDS011;20500;49.856;20.290;2022-12-18T14:28:27;49.60;;;25.90;;
34234;SDS011;20500;49.856;20.290;2022-12-18T14:31:30;55.50;;;28.00;;
34234;SDS011;20500;49.856;20.290;2022-12-18T14:34:33;53.10;;;27.80;;
34234;SDS011;20500;49.856;20.290;2022-12-18T14:37:36;57.80;;;30.20;;
34234;SDS011;20500;49.856;20.290;2022-12-18T14:40:39;50.30;;;26.20;;
34234;SDS011;20500;49.856;20.290;2022-12-18T14:43:43;60.10;;;33.50;;
34234;SDS011;20500;49.856;20.290;2022-12-18T14:46:48;65.30;;;36.00;;
34234;SDS011;20500;49.856;20.290;2022-12-18T14:49:52;50.70;;;27.80;;
34234;SDS011;20500;49.856;20.290;2022-12-18T14:52:55;51.70;;;25.80;;
34234;SDS011;20500;49.856;20.290;2022-12-18T14:55:58;56.20;;;29.90;;
34234;SDS011;20500;49.856;20.290;2022-12-18T14:59:02;53.90;;;27.10;;
34234;SDS011;20500;49.856;20.290;2022-12-18T15:02:10;56.70;;;30.00;;
34234;SDS011;20500;49.856;20.290;2022-12-18T15:05:24;56.10;;;29.80;;
34234;SDS011;20500;49.856;20.290;2022-12-18T15:08:30;55.20;;;29.50;;
34234;SDS011;20500;49.856;20.290;2022-12-18T15:11:44;52.50;;;27.30;;
34234;SDS011;20500;49.856;20.290;2022-12-18T15:14:48;147.60;;;69.60;;
34234;SDS011;20500;49.856;20.290;2022-12-18T15:17:56;79.10;;;39.30;;
34234;SDS011;20500;49.856;20.290;2022-12-18T15:21:07;80.50;;;40.70;;
34234;SDS011;20500;49.856;20.290;2022-12-18T15:24:15;68.90;;;35.00;;
34234;SDS011;20500;49.856;20.290;2022-12-18T15:27:26;59.70;;;32.90;;
34234;SDS011;20500;49.856;20.290;2022-12-18T15:30:31;59.60;;;31.40;;
34234;SDS011;20500;49.856;20.290;2022-12-18T15:33:35;58.70;;;30.90;;
34234;SDS011;20500;49.856;20.290;2022-12-18T15:36:40;64.20;;;36.20;;
34234;SDS011;20500;49.856;20.290;2022-12-18T15:39:43;68.60;;;38.50;;
34234;SDS011;20500;49.856;20.290;2022-12-18T15:42:46;58.80;;;32.30;;
34234;SDS011;20500;49.856;20.290;2022-12-18T15:46:10;55.50;;;29.20;;
34234;SDS011;20500;49.856;20.290;2022-12-18T15:49:15;53.10;;;27.90;;
34234;SDS011;20500;49.856;20.290;2022-12-18T15:52:17;51.40;;;28.70;;
34234;SDS011;20500;49.856;20.290;2022-12-18T15:55:27;55.10;;;32.10;;
34234;SDS011;20500;49.856;20.290;2022-12-18T15:58:48;52.50;;;28.40;;
34234;SDS011;20500;49.856;20.290;2022-12-18T16:01:52;52.50;;;27.20;;
34234;SDS011;20500;49.856;20.290;2022-12-18T16:04:55;57.40;;;28.20;;
34234;SDS011;20500;49.856;20.290;2022-12-18T16:07:59;52.10;;;27.30;;
34234;SDS011;20500;49.856;20.290;2022-12-18T16:11:03;47.80;;;25.80;;
34234;SDS011;20500;49.856;20.290;2022-12-18T16:14:14;56.60;;;27.00;;
34234;SDS011;20500;49.856;20.290;2022-12-18T16:17:19;53.10;;;27.30;;
34234;SDS011;20500;49.856;20.290;2022-12-18T16:20:22;58.10;;;30.20;;
34234;SDS011;20500;49.856;20.290;2022-12-18T16:23:25;56.00;;;29.50;;
34234;SDS011;20500;49.856;20.290;2022-12-18T16:26:35;56.80;;;29.10;;
34234;SDS011;20500;49.856;20.290;2022-12-18T16:29:39;65.90;;;37.90;;
34234;SDS011;20500;49.856;20.290;2022-12-18T16:32:41;55.10;;;29.50;;
34234;SDS011;20500;49.856;20.290;2022-12-18T16:35:51;58.30;;;28.60;;
34234;SDS011;20500;49.856;20.290;2022-12-18T16:38:54;51.40;;;27.80;;
34234;SDS011;20500;49.856;20.290;2022-12-18T16:41:58;61.40;;;30.60;;
34234;SDS011;20500;49.856;20.290;2022-12-18T16:45:08;68.40;;;36.40;;
34234;SDS011;20500;49.856;20.290;2022-12-18T16:48:12;71.00;;;38.80;;
34234;SDS011;20500;49.856;20.290;2022-12-18T16:51:15;70.40;;;38.00;;
34234;SDS011;20500;49.856;20.290;2022-12-18T16:54:19;60.80;;;31.00;;
34234;SDS011;20500;49.856;20.290;2022-12-18T16:57:22;54.70;;;28.20;;
34234;SDS011;20500;49.856;20.290;2022-12-18T17:00:26;52.90;;;28.00;;
34234;SDS011;20500;49.856;20.290;2022-12-18T17:03:29;55.80;;;28.40;;
34234;SDS011;20500;49.856;20.290;2022-12-18T17:06:32;56.70;;;30.30;;
34234;SDS011;20500;49.856;20.290;2022-12-18T17:09:37;67.20;;;34.20;;
34234;SDS011;20500;49.856;20.290;2022-12-18T17:12:40;61.50;;;31.40;;
34234;SDS011;20500;49.856;20.290;2022-12-18T17:15:44;60.10;;;29.70;;
34234;SDS011;20500;49.856;20.290;2022-12-18T17:18:47;68.40;;;36.00;;
34234;SDS011;20500;49.856;20.290;2022-12-18T17:21:51;70.20;;;36.50;;
34234;SDS011;20500;49.856;20.290;2022-12-18T17:24:54;86.30;;;46.00;;
34234;SDS011;20500;49.856;20.290;2022-12-18T17:27:57;93.30;;;47.10;;
34234;SDS011;20500;49.856;20.290;2022-12-18T17:31:00;107.20;;;55.20;;
34234;SDS011;20500;49.856;20.290;2022-12-18T17:34:03;78.00;;;41.10;;
34234;SDS011;20500;49.856;20.290;2022-12-18T17:37:06;78.40;;;39.80;;
34234;SDS011;20500;49.856;20.290;2022-12-18T17:40:10;81.20;;;40.90;;
34234;SDS011;20500;49.856;20.290;2022-12-18T17:43:13;78.70;;;41.90;;
34234;SDS011;20500;49.856;20.290;2022-12-18T17:46:17;83.40;;;43.90;;
34234;SDS011;20500;49.856;20.290;2022-12-18T17:49:20;77.10;;;40.10;;
34234;SDS011;20500;49.856;20.290;2022-12-18T17:52:23;65.90;;;31.90;;
34234;SDS011;20500;49.856;20.290;2022-12-18T17:55:26;68.30;;;36.30;;
34234;SDS011;20500;49.856;20.290;2022-12-18T17:58:30;67.40;;;37.10;;